sensor_id;sensor_type;location;lat;lon;timestamp;P1;durP1;ratioP1;P2;durP2;ratioP2
36391;SDS011;22639;42.690;23.356;2023-06-04T00:00:52;6.13;;;4.20;;
36391;SDS011;22639;42.690;23.356;2023-06-04T00:03:17;6.55;;;5.70;;
36391;SDS011;22639;42.690;23.356;2023-06-04T00:05:42;7.75;;;4.85;;
36391;SDS011;22639;42.690;23.356;2023-06-04T00:08:08;4.40;;;4.00;;
36391;SDS011;22639;42.690;23.356;2023-06-04T00:10:33;3.95;;;3.45;;
36391;SDS011;22639;42.690;23.356;2023-06-04T00:12:59;4.43;;;4.03;;
36391;SDS011;22639;42.690;23.356;2023-06-04T00:15:24;4.70;;;4.03;;
36391;SDS011;22639;42.690;23.356;2023-06-04T00:17:49;6.38;;;4.15;;
36391;SDS011;22639;42.690;23.356;2023-06-04T00:20:15;4.45;;;4.05;;
36391;SDS011;22639;42.690;23.356;2023-06-04T00:22:40;5.38;;;4.57;;
36391;SDS011;22639;42.690;23.356;2023-06-04T00:25:07;4.90;;;3.92;;
36391;SDS011;22639;42.690;23.356;2023-06-04T00:27:32;4.72;;;4.32;;
36391;SDS011;22639;42.690;23.356;2023-06-04T00:29:57;4.75;;;4.32;;
36391;SDS011;22639;42.690;23.356;2023-06-04T00:32:22;5.68;;;4.25;;
36391;SDS011;22639;42.690;23.356;2023-06-04T00:34:51;4.60;;;4.20;;
36391;SDS011;22639;42.690;23.356;2023-06-04T00:37:16;5.40;;;4.28;;
36391;SDS011;22639;42.690;23.356;2023-06-04T00:39:42;6.05;;;4.68;;
36391;SDS011;22639;42.690;23.356;2023-06-04T00:42:07;5.60;;;4.97;;
36391;SDS011;22639;42.690;23.356;2023-06-04T00:44:32;7.68;;;4.93;;
36391;SDS011;22639;42.690;23.356;2023-06-04T00:46:58;4.13;;;3.72;;
36391;SDS011;22639;42.690;23.356;2023-06-04T00:49:24;3.83;;;3.50;;
36391;SDS011;22639;42.690;23.356;2023-06-04T00:51:49;4.25;;;3.90;;
36391;SDS011;22639;42.690;23.356;2023-06-04T00:54:15;4.65;;;3.75;;
36391;SDS011;22639;42.690;23.356;2023-06-04T00:56:43;6.53;;;4.40;;
36391;SDS011;22639;42.690;23.356;2023-06-04T00:59:09;5.88;;;4.50;;
36391;SDS011;22639;42.690;23.356;2023-06-04T01:01:40;7.85;;;4.05;;
36391;SDS011;22639;42.690;23.356;2023-06-04T01:04:09;4.43;;;4.03;;
36391;SDS011;22639;42.690;23.356;2023-06-04T01:06:43;6.35;;;4.40;;
36391;SDS011;22639;42.690;23.356;2023-06-04T01:09:08;4.43;;;3.80;;
36391;SDS011;22639;42.690;23.356;2023-06-04T01:11:35;4.97;;;3.42;;
36391;SDS011;22639;42.690;23.356;2023-06-04T01:14:01;4.00;;;3.58;;
36391;SDS011;22639;42.690;23.356;2023-06-04T01:16:27;3.28;;;2.97;;
36391;SDS011;22639;42.690;23.356;2023-06-04T01:18:54;4.72;;;3.83;;
36391;SDS011;22639;42.690;23.356;2023-06-04T01:21:23;4.35;;;3.55;;
36391;SDS011;22639;42.690;23.356;2023-06-04T01:23:51;4.22;;;3.30;;
36391;SDS011;22639;42.690;23.356;2023-06-04T01:26:23;5.13;;;3.58;;
36391;SDS011;22639;42.690;23.356;2023-06-04T01:28:49;6.05;;;3.28;;
36391;SDS011;22639;42.690;23.356;2023-06-04T01:31:15;5.85;;;4.32;;
36391;SDS011;22639;42.690;23.356;2023-06-04T01:33:40;3.50;;;3.20;;
36391;SDS011;22639;42.690;23.356;2023-06-04T01:36:05;3.20;;;2.90;;
36391;SDS011;22639;42.690;23.356;2023-06-04T01:38:35;4.57;;;3.97;;
36391;SDS011;22639;42.690;23.356;2023-06-04T01:41:00;5.95;;;3.65;;
36391;SDS011;22639;42.690;23.356;2023-06-04T01:43:26;5.28;;;3.85;;
36391;SDS011;22639;42.690;23.356;2023-06-04T01:45:52;6.47;;;4.20;;
36391;SDS011;22639;42.690;23.356;2023-06-04T01:48:17;4.40;;;3.80;;
36391;SDS011;22639;42.690;23.356;2023-06-04T01:50:42;3.47;;;3.15;;
36391;SDS011;22639;42.690;23.356;2023-06-04T01:53:08;3.63;;;3.22;;
36391;SDS011;22639;42.690;23.356;2023-06-04T01:55:33;3.28;;;2.97;;
36391;SDS011;22639;42.690;23.356;2023-06-04T01:57:59;4.15;;;3.42;;
36391;SDS011;22639;42.690;23.356;2023-06-04T02:00:25;3.63;;;3.10;;
36391;SDS011;22639;42.690;23.356;2023-06-04T02:02:50;5.43;;;3.67;;
36391;SDS011;22639;42.690;23.356;2023-06-04T02:05:16;4.10;;;3.70;;
36391;SDS011;22639;42.690;23.356;2023-06-04T02:07:42;4.10;;;3.70;;
36391;SDS011;22639;42.690;23.356;2023-06-04T02:10:10;4.40;;;4.00;;
36391;SDS011;22639;42.690;23.356;2023-06-04T02:12:39;5.07;;;3.90;;
36391;SDS011;22639;42.690;23.356;2023-06-04T02:15:04;4.95;;;3.88;;
36391;SDS011;22639;42.690;23.356;2023-06-04T02:17:30;7.63;;;4.45;;
36391;SDS011;22639;42.690;23.356;2023-06-04T02:19:57;4.25;;;3.92;;
36391;SDS011;22639;42.690;23.356;2023-06-04T02:22:23;4.43;;;4.03;;
36391;SDS011;22639;42.690;23.356;2023-06-04T02:24:48;3.92;;;3.63;;
36391;SDS011;22639;42.690;23.356;2023-06-04T02:27:14;4.38;;;3.50;;
36391;SDS011;22639;42.690;23.356;2023-06-04T02:29:40;4.95;;;3.72;;
36391;SDS011;22639;42.690;23.356;2023-06-04T02:32:05;5.00;;;3.60;;
36391;SDS011;22639;42.690;23.356;2023-06-04T02:34:30;4.35;;;3.92;;
36391;SDS011;22639;42.690;23.356;2023-06-04T02:36:56;5.20;;;3.75;;
36391;SDS011;22639;42.690;23.356;2023-06-04T02:39:21;4.30;;;3.47;;
36391;SDS011;22639;42.690;23.356;2023-06-04T02:41:46;4.88;;;3.50;;
36391;SDS011;22639;42.690;23.356;2023-06-04T02:44:12;4.45;;;4.05;;
36391;SDS011;22639;42.690;23.356;2023-06-04T02:46:37;4.47;;;4.07;;
36391;SDS011;22639;42.690;23.356;2023-06-04T02:49:03;5.78;;;4.07;;
36391;SDS011;22639;42.690;23.356;2023-06-04T02:51:28;4.00;;;3.60;;
36391;SDS011;22639;42.690;23.356;2023-06-04T02:53:53;6.00;;;4.35;;
36391;SDS011;22639;42.690;23.356;2023-06-04T02:56:19;4.18;;;3.78;;
36391;SDS011;22639;42.690;23.356;2023-06-04T02:58:52;4.20;;;3.90;;
36391;SDS011;22639;42.690;23.356;2023-06-04T03:01:27;6.63;;;3.70;;
36391;SDS011;22639;42.690;23.356;2023-06-04T03:03:53;4.60;;;4.20;;
36391;SDS011;22639;42.690;23.356;2023-06-04T03:06:19;3.78;;;3.47;;
36391;SDS011;22639;42.690;23.356;2023-06-04T03:08:49;3.97;;;3.42;;
36391;SDS011;22639;42.690;23.356;2023-06-04T03:11:15;3.97;;;3.58;;
36391;SDS011;22639;42.690;23.356;2023-06-04T03:13:40;4.72;;;3.50;;
36391;SDS011;22639;42.690;23.356;2023-06-04T03:16:05;3.72;;;3.40;;
36391;SDS011;22639;42.690;23.356;2023-06-04T03:18:37;4.28;;;3.22;;
36391;SDS011;22639;42.690;23.356;2023-06-04T03:21:03;5.40;;;3.38;;
36391;SDS011;22639;42.690;23.356;2023-06-04T03:23:28;4.32;;;3.55;;
36391;SDS011;22639;42.690;23.356;2023-06-04T03:25:53;4.00;;;3.45;;
36391;SDS011;22639;42.690;23.356;2023-06-04T03:28:19;3.63;;;3.33;;
36391;SDS011;22639;42.690;23.356;2023-06-04T03:30:45;5.18;;;3.85;;
36391;SDS011;22639;42.690;23.356;2023-06-04T03:33:10;5.45;;;3.88;;
36391;SDS011;22639;42.690;23.356;2023-06-04T03:35:35;5.18;;;3.70;;
36391;SDS011;22639;42.690;23.356;2023-06-04T03:38:01;4.53;;;3.25;;
36391;SDS011;22639;42.690;23.356;2023-06-04T03:40:26;4.53;;;3.30;;
36391;SDS011;22639;42.690;23.356;2023-06-04T03:42:51;4.75;;;4.03;;
36391;SDS011;22639;42.690;23.356;2023-06-04T03:45:16;5.30;;;3.38;;
36391;SDS011;22639;42.690;23.356;2023-06-04T03:47:42;3.88;;;3.47;;
36391;SDS011;22639;42.690;23.356;2023-06-04T03:50:07;5.15;;;3.95;;
36391;SDS011;22639;42.690;23.356;2023-06-04T03:52:32;5.57;;;4.35;;
36391;SDS011;22639;42.690;23.356;2023-06-04T03:54:58;4.90;;;4.43;;
36391;SDS011;22639;42.690;23.356;2023-06-04T03:57:23;5.80;;;4.25;;
36391;SDS011;22639;42.690;23.356;2023-06-04T03:59:48;5.55;;;4.32;;
36391;SDS011;22639;42.690;23.356;2023-06-04T04:02:13;5.05;;;4.35;;
36391;SDS011;22639;42.690;23.356;2023-06-04T04:04:39;4.18;;;3.78;;
36391;SDS011;22639;42.690;23.356;2023-06-04T04:07:05;6.18;;;4.00;;
36391;SDS011;22639;42.690;23.356;2023-06-04T04:09:30;4.72;;;4.25;;
36391;SDS011;22639;42.690;23.356;2023-06-04T04:11:55;4.97;;;4.40;;
36391;SDS011;22639;42.690;23.356;2023-06-04T04:14:20;5.13;;;3.90;;
36391;SDS011;22639;42.690;23.356;2023-06-04T04:16:46;8.52;;;5.10;;
36391;SDS011;22639;42.690;23.356;2023-06-04T04:19:11;9.35;;;4.80;;
36391;SDS011;22639;42.690;23.356;2023-06-04T04:21:37;7.63;;;4.93;;
36391;SDS011;22639;42.690;23.356;2023-06-04T04:24:03;5.00;;;4.50;;
36391;SDS011;22639;42.690;23.356;2023-06-04T04:26:28;5.25;;;4.18;;
36391;SDS011;22639;42.690;23.356;2023-06-04T04:28:54;7.32;;;5.15;;
36391;SDS011;22639;42.690;23.356;2023-06-04T04:31:26;6.20;;;4.50;;
36391;SDS011;22639;42.690;23.356;2023-06-04T04:33:51;4.95;;;4.45;;
36391;SDS011;22639;42.690;23.356;2023-06-04T04:36:17;6.82;;;5.30;;
36391;SDS011;22639;42.690;23.356;2023-06-04T04:38:43;5.35;;;4.82;;
36391;SDS011;22639;42.690;23.356;2023-06-04T04:41:10;5.25;;;4.70;;
36391;SDS011;22639;42.690;23.356;2023-06-04T04:43:36;5.38;;;4.88;;
36391;SDS011;22639;42.690;23.356;2023-06-04T04:46:05;5.05;;;4.43;;
36391;SDS011;22639;42.690;23.356;2023-06-04T04:48:30;5.60;;;5.10;;
36391;SDS011;22639;42.690;23.356;2023-06-04T04:50:56;6.90;;;4.50;;
36391;SDS011;22639;42.690;23.356;2023-06-04T04:53:21;4.53;;;4.10;;
36391;SDS011;22639;42.690;23.356;2023-06-04T04:55:46;5.22;;;4.72;;
36391;SDS011;22639;42.690;23.356;2023-06-04T04:58:12;6.68;;;4.90;;
36391;SDS011;22639;42.690;23.356;2023-06-04T05:00:37;5.50;;;4.65;;
36391;SDS011;22639;42.690;23.356;2023-06-04T05:03:02;10.23;;;5.25;;
36391;SDS011;22639;42.690;23.356;2023-06-04T05:05:28;7.30;;;4.80;;
36391;SDS011;22639;42.690;23.356;2023-06-04T05:07:53;5.10;;;4.45;;
36391;SDS011;22639;42.690;23.356;2023-06-04T05:10:18;6.20;;;5.60;;
36391;SDS011;22639;42.690;23.356;2023-06-04T05:12:50;7.47;;;6.25;;
36391;SDS011;22639;42.690;23.356;2023-06-04T05:15:16;10.10;;;6.43;;
36391;SDS011;22639;42.690;23.356;2023-06-04T05:17:43;8.48;;;5.38;;
36391;SDS011;22639;42.690;23.356;2023-06-04T05:20:08;7.65;;;5.70;;
36391;SDS011;22639;42.690;23.356;2023-06-04T05:22:37;8.20;;;6.13;;
36391;SDS011;22639;42.690;23.356;2023-06-04T05:25:02;7.07;;;5.40;;
36391;SDS011;22639;42.690;23.356;2023-06-04T05:27:27;6.50;;;5.88;;
36391;SDS011;22639;42.690;23.356;2023-06-04T05:29:53;9.25;;;5.55;;
36391;SDS011;22639;42.690;23.356;2023-06-04T05:32:18;7.97;;;6.20;;
36391;SDS011;22639;42.690;23.356;2023-06-04T05:34:43;5.25;;;4.75;;
36391;SDS011;22639;42.690;23.356;2023-06-04T05:37:08;5.47;;;4.90;;
36391;SDS011;22639;42.690;23.356;2023-06-04T05:39:34;5.55;;;4.97;;
36391;SDS011;22639;42.690;23.356;2023-06-04T05:42:00;6.80;;;6.03;;
36391;SDS011;22639;42.690;23.356;2023-06-04T05:44:26;6.88;;;4.90;;
36391;SDS011;22639;42.690;23.356;2023-06-04T05:46:51;5.68;;;5.15;;
36391;SDS011;22639;42.690;23.356;2023-06-04T05:49:17;6.68;;;5.85;;
36391;SDS011;22639;42.690;23.356;2023-06-04T05:51:42;8.10;;;5.85;;
36391;SDS011;22639;42.690;23.356;2023-06-04T05:54:08;5.50;;;5.00;;
36391;SDS011;22639;42.690;23.356;2023-06-04T05:56:33;8.07;;;6.38;;
36391;SDS011;22639;42.690;23.356;2023-06-04T05:58:58;6.13;;;5.55;;
36391;SDS011;22639;42.690;23.356;2023-06-04T06:01:24;5.65;;;4.88;;
36391;SDS011;22639;42.690;23.356;2023-06-04T06:03:49;7.50;;;6.05;;
36391;SDS011;22639;42.690;23.356;2023-06-04T06:06:33;6.57;;;5.22;;
36391;SDS011;22639;42.690;23.356;2023-06-04T06:08:58;6.57;;;5.93;;
36391;SDS011;22639;42.690;23.356;2023-06-04T06:11:23;6.60;;;5.28;;
36391;SDS011;22639;42.690;23.356;2023-06-04T06:13:49;6.35;;;5.40;;
36391;SDS011;22639;42.690;23.356;2023-06-04T06:16:15;6.35;;;5.63;;
36391;SDS011;22639;42.690;23.356;2023-06-04T06:18:42;6.25;;;5.65;;
36391;SDS011;22639;42.690;23.356;2023-06-04T06:21:07;5.93;;;5.22;;
36391;SDS011;22639;42.690;23.356;2023-06-04T06:23:32;6.07;;;5.47;;
36391;SDS011;22639;42.690;23.356;2023-06-04T06:25:57;5.97;;;5.38;;
36391;SDS011;22639;42.690;23.356;2023-06-04T06:28:26;8.00;;;5.45;;
36391;SDS011;22639;42.690;23.356;2023-06-04T06:30:51;7.57;;;5.55;;
36391;SDS011;22639;42.690;23.356;2023-06-04T06:33:16;8.45;;;5.35;;
36391;SDS011;22639;42.690;23.356;2023-06-04T06:35:47;6.95;;;6.28;;
36391;SDS011;22639;42.690;23.356;2023-06-04T06:38:12;5.25;;;4.85;;
36391;SDS011;22639;42.690;23.356;2023-06-04T06:40:37;5.97;;;5.38;;
36391;SDS011;22639;42.690;23.356;2023-06-04T06:43:03;6.72;;;5.32;;
36391;SDS011;22639;42.690;23.356;2023-06-04T06:45:28;8.18;;;5.40;;
36391;SDS011;22639;42.690;23.356;2023-06-04T06:47:53;6.47;;;5.45;;
36391;SDS011;22639;42.690;23.356;2023-06-04T06:50:18;5.32;;;4.82;;
36391;SDS011;22639;42.690;23.356;2023-06-04T06:52:44;11.73;;;6.15;;
36391;SDS011;22639;42.690;23.356;2023-06-04T06:55:09;6.35;;;5.35;;
36391;SDS011;22639;42.690;23.356;2023-06-04T06:57:34;5.70;;;4.85;;
36391;SDS011;22639;42.690;23.356;2023-06-04T07:00:00;5.05;;;4.55;;
36391;SDS011;22639;42.690;23.356;2023-06-04T07:02:26;8.43;;;5.05;;
36391;SDS011;22639;42.690;23.356;2023-06-04T07:04:51;6.07;;;5.30;;
36391;SDS011;22639;42.690;23.356;2023-06-04T07:07:16;6.93;;;4.78;;
36391;SDS011;22639;42.690;23.356;2023-06-04T07:09:42;5.05;;;4.55;;
36391;SDS011;22639;42.690;23.356;2023-06-04T07:12:07;6.05;;;5.45;;
36391;SDS011;22639;42.690;23.356;2023-06-04T07:14:32;6.55;;;5.00;;
36391;SDS011;22639;42.690;23.356;2023-06-04T07:16:57;7.68;;;5.70;;
36391;SDS011;22639;42.690;23.356;2023-06-04T07:19:23;6.13;;;5.35;;
36391;SDS011;22639;42.690;23.356;2023-06-04T07:21:48;6.55;;;4.72;;
36391;SDS011;22639;42.690;23.356;2023-06-04T07:24:13;6.03;;;5.43;;
36391;SDS011;22639;42.690;23.356;2023-06-04T07:26:38;7.63;;;5.10;;
36391;SDS011;22639;42.690;23.356;2023-06-04T07:29:04;5.53;;;5.03;;
36391;SDS011;22639;42.690;23.356;2023-06-04T07:31:29;6.47;;;5.10;;
36391;SDS011;22639;42.690;23.356;2023-06-04T07:33:54;6.55;;;5.30;;
36391;SDS011;22639;42.690;23.356;2023-06-04T07:36:20;7.65;;;5.40;;
36391;SDS011;22639;42.690;23.356;2023-06-04T07:38:45;8.30;;;5.20;;
36391;SDS011;22639;42.690;23.356;2023-06-04T07:41:10;6.57;;;5.47;;
36391;SDS011;22639;42.690;23.356;2023-06-04T07:43:36;6.03;;;5.47;;
36391;SDS011;22639;42.690;23.356;2023-06-04T07:46:02;8.93;;;5.45;;
36391;SDS011;22639;42.690;23.356;2023-06-04T07:48:27;6.57;;;5.90;;
36391;SDS011;22639;42.690;23.356;2023-06-04T07:50:59;5.95;;;5.45;;
36391;SDS011;22639;42.690;23.356;2023-06-04T07:53:25;6.28;;;5.20;;
36391;SDS011;22639;42.690;23.356;2023-06-04T07:55:50;9.68;;;5.82;;
36391;SDS011;22639;42.690;23.356;2023-06-04T07:58:16;5.88;;;5.28;;
36391;SDS011;22639;42.690;23.356;2023-06-04T08:00:41;6.10;;;5.50;;
36391;SDS011;22639;42.690;23.356;2023-06-04T08:03:06;5.95;;;5.35;;
36391;SDS011;22639;42.690;23.356;2023-06-04T08:05:31;4.95;;;4.55;;
36391;SDS011;22639;42.690;23.356;2023-06-04T08:07:57;6.32;;;5.72;;
36391;SDS011;22639;42.690;23.356;2023-06-04T08:10:22;7.45;;;4.95;;
36391;SDS011;22639;42.690;23.356;2023-06-04T08:12:47;6.18;;;5.55;;
36391;SDS011;22639;42.690;23.356;2023-06-04T08:15:12;6.15;;;5.35;;
36391;SDS011;22639;42.690;23.356;2023-06-04T08:17:38;7.25;;;6.32;;
36391;SDS011;22639;42.690;23.356;2023-06-04T08:20:03;5.78;;;5.18;;
36391;SDS011;22639;42.690;23.356;2023-06-04T08:22:33;6.05;;;5.47;;
36391;SDS011;22639;42.690;23.356;2023-06-04T08:24:58;7.45;;;5.30;;
36391;SDS011;22639;42.690;23.356;2023-06-04T08:27:23;6.00;;;5.40;;
36391;SDS011;22639;42.690;23.356;2023-06-04T08:29:49;10.30;;;6.15;;
36391;SDS011;22639;42.690;23.356;2023-06-04T08:32:14;7.88;;;6.50;;
36391;SDS011;22639;42.690;23.356;2023-06-04T08:34:39;11.13;;;7.03;;
36391;SDS011;22639;42.690;23.356;2023-06-04T08:37:05;10.70;;;7.75;;
36391;SDS011;22639;42.690;23.356;2023-06-04T08:39:30;9.90;;;8.63;;
36391;SDS011;22639;42.690;23.356;2023-06-04T08:41:56;9.68;;;7.72;;
36391;SDS011;22639;42.690;23.356;2023-06-04T08:44:24;9.90;;;7.95;;
36391;SDS011;22639;42.690;23.356;2023-06-04T08:46:51;11.65;;;9.13;;
36391;SDS011;22639;42.690;23.356;2023-06-04T08:49:18;9.57;;;7.47;;
36391;SDS011;22639;42.690;23.356;2023-06-04T08:51:45;16.75;;;13.00;;
36391;SDS011;22639;42.690;23.356;2023-06-04T08:54:11;11.95;;;9.63;;
36391;SDS011;22639;42.690;23.356;2023-06-04T08:56:36;8.45;;;7.55;;
36391;SDS011;22639;42.690;23.356;2023-06-04T08:59:02;7.63;;;6.90;;
36391;SDS011;22639;42.690;23.356;2023-06-04T09:01:29;8.60;;;7.38;;
36391;SDS011;22639;42.690;23.356;2023-06-04T09:03:54;8.25;;;7.07;;
36391;SDS011;22639;42.690;23.356;2023-06-04T09:06:22;8.63;;;7.80;;
36391;SDS011;22639;42.690;23.356;2023-06-04T09:08:48;8.20;;;7.40;;
36391;SDS011;22639;42.690;23.356;2023-06-04T09:11:14;11.50;;;8.10;;
36391;SDS011;22639;42.690;23.356;2023-06-04T09:13:40;7.63;;;6.93;;
36391;SDS011;22639;42.690;23.356;2023-06-04T09:16:08;11.05;;;6.57;;
36391;SDS011;22639;42.690;23.356;2023-06-04T09:18:33;9.20;;;6.70;;
36391;SDS011;22639;42.690;23.356;2023-06-04T09:21:07;7.63;;;6.82;;
36391;SDS011;22639;42.690;23.356;2023-06-04T09:26:10;13.15;;;7.72;;
36391;SDS011;22639;42.690;23.356;2023-06-04T09:28:42;9.90;;;7.90;;
36391;SDS011;22639;42.690;23.356;2023-06-04T09:31:16;7.82;;;7.03;;
36391;SDS011;22639;42.690;23.356;2023-06-04T09:33:43;9.40;;;7.57;;
36391;SDS011;22639;42.690;23.356;2023-06-04T09:36:08;8.68;;;7.88;;
36391;SDS011;22639;42.690;23.356;2023-06-04T09:38:37;8.65;;;7.07;;
36391;SDS011;22639;42.690;23.356;2023-06-04T09:41:02;8.18;;;6.45;;
36391;SDS011;22639;42.690;23.356;2023-06-04T09:43:32;8.65;;;6.50;;
36391;SDS011;22639;42.690;23.356;2023-06-04T09:46:08;7.18;;;6.47;;
36391;SDS011;22639;42.690;23.356;2023-06-04T09:48:33;10.15;;;7.03;;
36391;SDS011;22639;42.690;23.356;2023-06-04T09:51:05;10.07;;;6.43;;
36391;SDS011;22639;42.690;23.356;2023-06-04T09:53:30;9.10;;;7.03;;
36391;SDS011;22639;42.690;23.356;2023-06-04T09:55:57;6.32;;;5.75;;
36391;SDS011;22639;42.690;23.356;2023-06-04T09:58:25;7.55;;;6.85;;
36391;SDS011;22639;42.690;23.356;2023-06-04T10:00:51;9.77;;;7.10;;
36391;SDS011;22639;42.690;23.356;2023-06-04T10:03:17;8.80;;;7.70;;
36391;SDS011;22639;42.690;23.356;2023-06-04T10:05:48;8.45;;;6.47;;
36391;SDS011;22639;42.690;23.356;2023-06-04T10:08:14;8.85;;;6.88;;
36391;SDS011;22639;42.690;23.356;2023-06-04T10:10:41;7.45;;;6.75;;
36391;SDS011;22639;42.690;23.356;2023-06-04T10:13:11;9.50;;;7.35;;
36391;SDS011;22639;42.690;23.356;2023-06-04T10:15:40;6.85;;;6.15;;
36391;SDS011;22639;42.690;23.356;2023-06-04T10:18:05;7.93;;;5.97;;
36391;SDS011;22639;42.690;23.356;2023-06-04T10:20:31;7.28;;;6.60;;
36391;SDS011;22639;42.690;23.356;2023-06-04T10:22:57;7.75;;;7.00;;
36391;SDS011;22639;42.690;23.356;2023-06-04T10:25:22;8.48;;;6.90;;
36391;SDS011;22639;42.690;23.356;2023-06-04T10:27:50;6.30;;;5.70;;
36391;SDS011;22639;42.690;23.356;2023-06-04T10:30:15;6.45;;;5.82;;
36391;SDS011;22639;42.690;23.356;2023-06-04T10:32:40;7.05;;;6.07;;
36391;SDS011;22639;42.690;23.356;2023-06-04T10:35:06;7.97;;;7.00;;
36391;SDS011;22639;42.690;23.356;2023-06-04T10:37:33;6.90;;;6.22;;
36391;SDS011;22639;42.690;23.356;2023-06-04T10:39:58;9.20;;;6.25;;
36391;SDS011;22639;42.690;23.356;2023-06-04T10:42:24;7.35;;;6.65;;
36391;SDS011;22639;42.690;23.356;2023-06-04T10:44:53;6.55;;;5.93;;
36391;SDS011;22639;42.690;23.356;2023-06-04T10:47:22;7.32;;;6.55;;
36391;SDS011;22639;42.690;23.356;2023-06-04T10:49:48;8.45;;;6.75;;
36391;SDS011;22639;42.690;23.356;2023-06-04T10:52:14;6.97;;;6.28;;
36391;SDS011;22639;42.690;23.356;2023-06-04T10:54:40;8.18;;;7.47;;
36391;SDS011;22639;42.690;23.356;2023-06-04T10:57:15;6.82;;;6.30;;
36391;SDS011;22639;42.690;23.356;2023-06-04T10:59:41;8.05;;;7.25;;
36391;SDS011;22639;42.690;23.356;2023-06-04T11:02:07;7.93;;;7.18;;
36391;SDS011;22639;42.690;23.356;2023-06-04T11:04:33;9.00;;;7.10;;
36391;SDS011;22639;42.690;23.356;2023-06-04T11:07:02;7.28;;;6.68;;
36391;SDS011;22639;42.690;23.356;2023-06-04T11:09:28;12.43;;;7.72;;
36391;SDS011;22639;42.690;23.356;2023-06-04T11:11:57;8.35;;;7.13;;
36391;SDS011;22639;42.690;23.356;2023-06-04T11:14:23;8.50;;;7.68;;
36391;SDS011;22639;42.690;23.356;2023-06-04T11:16:48;9.13;;;7.70;;
36391;SDS011;22639;42.690;23.356;2023-06-04T11:19:13;8.73;;;7.93;;
36391;SDS011;22639;42.690;23.356;2023-06-04T11:21:38;7.80;;;6.97;;
36391;SDS011;22639;42.690;23.356;2023-06-04T11:24:04;8.10;;;7.40;;
36391;SDS011;22639;42.690;23.356;2023-06-04T11:26:33;8.57;;;7.75;;
36391;SDS011;22639;42.690;23.356;2023-06-04T11:28:59;10.57;;;6.78;;
36391;SDS011;22639;42.690;23.356;2023-06-04T11:31:24;8.98;;;8.07;;
36391;SDS011;22639;42.690;23.356;2023-06-04T11:33:50;8.82;;;7.95;;
36391;SDS011;22639;42.690;23.356;2023-06-04T11:36:23;9.18;;;8.15;;
36391;SDS011;22639;42.690;23.356;2023-06-04T11:38:58;8.52;;;7.72;;
36391;SDS011;22639;42.690;23.356;2023-06-04T11:41:27;10.77;;;8.77;;
36391;SDS011;22639;42.690;23.356;2023-06-04T11:43:52;8.13;;;7.43;;
36391;SDS011;22639;42.690;23.356;2023-06-04T11:46:18;8.65;;;7.85;;
36391;SDS011;22639;42.690;23.356;2023-06-04T11:48:44;8.60;;;7.90;;
36391;SDS011;22639;42.690;23.356;2023-06-04T11:51:10;8.70;;;7.70;;
36391;SDS011;22639;42.690;23.356;2023-06-04T11:53:38;9.98;;;8.45;;
36391;SDS011;22639;42.690;23.356;2023-06-04T11:56:04;9.45;;;8.55;;
36391;SDS011;22639;42.690;23.356;2023-06-04T11:58:29;9.52;;;8.73;;
36391;SDS011;22639;42.690;23.356;2023-06-04T12:00:55;9.93;;;9.02;;
36391;SDS011;22639;42.690;23.356;2023-06-04T12:03:31;9.00;;;8.20;;
36391;SDS011;22639;42.690;23.356;2023-06-04T12:05:56;10.07;;;8.90;;
36391;SDS011;22639;42.690;23.356;2023-06-04T12:08:21;9.65;;;8.68;;
36391;SDS011;22639;42.690;23.356;2023-06-04T12:10:47;9.57;;;8.63;;
36391;SDS011;22639;42.690;23.356;2023-06-04T12:13:12;10.73;;;9.70;;
36391;SDS011;22639;42.690;23.356;2023-06-04T12:15:37;9.73;;;8.82;;
36391;SDS011;22639;42.690;23.356;2023-06-04T12:18:02;10.10;;;8.45;;
36391;SDS011;22639;42.690;23.356;2023-06-04T12:20:33;12.52;;;9.10;;
36391;SDS011;22639;42.690;23.356;2023-06-04T12:22:58;10.48;;;8.75;;
36391;SDS011;22639;42.690;23.356;2023-06-04T12:25:24;11.20;;;8.93;;
36391;SDS011;22639;42.690;23.356;2023-06-04T12:27:53;9.88;;;8.98;;
36391;SDS011;22639;42.690;23.356;2023-06-04T12:30:18;10.25;;;9.25;;
36391;SDS011;22639;42.690;23.356;2023-06-04T12:32:43;10.85;;;9.50;;
36391;SDS011;22639;42.690;23.356;2023-06-04T12:35:10;9.55;;;8.75;;
36391;SDS011;22639;42.690;23.356;2023-06-04T12:37:36;9.65;;;8.80;;
36391;SDS011;22639;42.690;23.356;2023-06-04T12:40:01;9.40;;;8.50;;
36391;SDS011;22639;42.690;23.356;2023-06-04T12:42:29;8.65;;;7.65;;
36391;SDS011;22639;42.690;23.356;2023-06-04T12:44:55;9.57;;;8.68;;
36391;SDS011;22639;42.690;23.356;2023-06-04T12:47:20;9.68;;;8.77;;
36391;SDS011;22639;42.690;23.356;2023-06-04T12:49:46;9.30;;;8.40;;
36391;SDS011;22639;42.690;23.356;2023-06-04T12:52:11;8.82;;;7.43;;
36391;SDS011;22639;42.690;23.356;2023-06-04T12:54:39;9.23;;;8.32;;
36391;SDS011;22639;42.690;23.356;2023-06-04T12:57:05;10.15;;;8.18;;
36391;SDS011;22639;42.690;23.356;2023-06-04T12:59:30;9.10;;;7.90;;
36391;SDS011;22639;42.690;23.356;2023-06-04T13:01:55;11.50;;;9.07;;
36391;SDS011;22639;42.690;23.356;2023-06-04T13:04:21;9.18;;;8.40;;
36391;SDS011;22639;42.690;23.356;2023-06-04T13:06:48;10.57;;;9.57;;
36391;SDS011;22639;42.690;23.356;2023-06-04T13:09:14;9.48;;;8.68;;
36391;SDS011;22639;42.690;23.356;2023-06-04T13:11:40;10.05;;;9.10;;
36391;SDS011;22639;42.690;23.356;2023-06-04T13:14:06;9.35;;;8.43;;
36391;SDS011;22639;42.690;23.356;2023-06-04T13:16:31;8.88;;;8.07;;
36391;SDS011;22639;42.690;23.356;2023-06-04T13:18:56;9.10;;;8.30;;
36391;SDS011;22639;42.690;23.356;2023-06-04T13:21:22;7.70;;;6.93;;
36391;SDS011;22639;42.690;23.356;2023-06-04T13:23:47;9.98;;;7.95;;
36391;SDS011;22639;42.690;23.356;2023-06-04T13:26:15;8.55;;;7.85;;
36391;SDS011;22639;42.690;23.356;2023-06-04T13:28:40;8.93;;;7.93;;
36391;SDS011;22639;42.690;23.356;2023-06-04T13:31:05;8.20;;;7.45;;
36391;SDS011;22639;42.690;23.356;2023-06-04T13:33:30;9.35;;;8.35;;
36391;SDS011;22639;42.690;23.356;2023-06-04T13:35:56;9.43;;;7.63;;
36391;SDS011;22639;42.690;23.356;2023-06-04T13:38:21;10.15;;;7.97;;
36391;SDS011;22639;42.690;23.356;2023-06-04T13:40:46;8.13;;;7.32;;
36391;SDS011;22639;42.690;23.356;2023-06-04T13:43:11;11.45;;;8.15;;
36391;SDS011;22639;42.690;23.356;2023-06-04T13:45:37;9.13;;;7.57;;
36391;SDS011;22639;42.690;23.356;2023-06-04T13:48:02;7.75;;;7.03;;
36391;SDS011;22639;42.690;23.356;2023-06-04T13:50:31;11.40;;;7.95;;
36391;SDS011;22639;42.690;23.356;2023-06-04T13:52:57;8.55;;;7.70;;
36391;SDS011;22639;42.690;23.356;2023-06-04T13:55:22;7.40;;;6.70;;
36391;SDS011;22639;42.690;23.356;2023-06-04T13:57:47;8.65;;;7.85;;
36391;SDS011;22639;42.690;23.356;2023-06-04T14:00:12;9.38;;;8.27;;
36391;SDS011;22639;42.690;23.356;2023-06-04T14:02:39;8.15;;;7.45;;
36391;SDS011;22639;42.690;23.356;2023-06-04T14:05:05;8.15;;;7.35;;
36391;SDS011;22639;42.690;23.356;2023-06-04T14:07:30;6.25;;;5.65;;
36391;SDS011;22639;42.690;23.356;2023-06-04T14:09:55;7.78;;;7.07;;
36391;SDS011;22639;42.690;23.356;2023-06-04T14:12:21;8.20;;;7.50;;
36391;SDS011;22639;42.690;23.356;2023-06-04T14:14:47;7.25;;;6.55;;
36391;SDS011;22639;42.690;23.356;2023-06-04T14:17:12;8.38;;;6.25;;
36391;SDS011;22639;42.690;23.356;2023-06-04T14:19:38;8.68;;;6.78;;
36391;SDS011;22639;42.690;23.356;2023-06-04T14:22:03;7.72;;;7.10;;
36391;SDS011;22639;42.690;23.356;2023-06-04T14:24:30;8.65;;;6.78;;
36391;SDS011;22639;42.690;23.356;2023-06-04T14:26:55;8.13;;;7.32;;
36391;SDS011;22639;42.690;23.356;2023-06-04T14:29:20;8.63;;;7.82;;